Terminal Aerodrome Forecast
Issued by NWS

Home | Current Version | Previous Version | Text Only | Print | Product List | Glossary Off
Versions: 1 2 3 4 5 6 7 8 9 10 11 12 13 14 15 16 17 18 19 20 21

000
FTUS43 KTOP 251300 AAA
TAFMHK
TAF AMD
KMHK 251356Z 2514/2612 29008KT P6SM -SHRA BKN014 OVC050
      TEMPO 2515/2518 SCT022 OVC040
     FM251800 35009KT P6SM BKN024
     FM260000 03007KT P6SM OVC015
     FM260700 04007KT P6SM OVC009=

USA.gov is the U.S. government's official web portal to all federal, state and local government web resources and services.